Thursday, November 27, 2014
05:26 UTC
  |  Log In   |  Register Free
Airport Search:

Lonesome Pine Airport
(KLNP)

Lonesome Pine Airport Diagram
No Airport Diagram Available

FAA data valid effective November 13, 2014 - January 08, 2015 (unless otherwise noted).

 
 
 
 
 
 
 
 
 
 
 
 
 
 

Current Aviation Weather for Lonesome Pine Airport (KLNP)

The most recent METAR observation for KLNP was updated at: 0433
METAR Summary (Translated METAR)
KLNP
270415Z AUTO 00000KT 10SM SCT060 OVC080 02/M01 A2997 RMK AO2
KVJI
270435Z AUTO 00000KT 3SM BR OVC100 02/02 A2999 RMK AO2 T00200020
(29.9 nm SE from KLNP)
KTRI
270353Z 00000KT 7SM BKN090 OVC110 03/02 A3000 RMK AO2 SLP154 T00280022
(31.3 nm SE from KLNP)
TAF Summary (Translated TAF)
KTRI
(31.3 nm SE from KLNP)
262030Z 2621/2718 26005KT P6SM BKN025 FM270300 22003KT P6SM SCT020 BKN080 FM270700 25003KT 5SM -RA BR BKN030 FM270900 00000KT 2SM -SN BR SCT005 OVC010 TEMPO 2709/2713 1/2SM SN OVC004 FM271300 29010KT P6SM OVC015 FM271600 29010KT P6SM BKN020
  Airport Weather Conditions for KLNP

 Current Weather at LNP
36° F
Overcast
Southwest winds at 3.5 mph
LNP NOAA Radar

Pressure: 29.96 in
Humidity: 81%
Wind: Southwest at 3.5 MPH (3 KT)
Dew Point: 30.2°F
Visibility: 10.00 mi


Airport Weather Forecast for KLNP

Translated METAR and TAF for KLNP
Translated METAR for KLNP (0521 UTC 27 November 2014)
found at http://aviationweather.gov/adds/metars/
 
METAR text: KLNP 270515Z AUTO 25003KT 10SM OVC075 02/M02 A2996 RMK AO2
Conditions at: KLNP (WISE/LONESOME PI, VA, US) observed 0515 UTC 27 November 2014
Temperature: 2.0°C (36°F)
Dewpoint: -2.0°C (28°F) [RH = 75%]
Pressure (altimeter): 29.96 inches Hg (1014.6 mb)
Winds: from the WSW (250 degrees) at 3 MPH (3 knots; 1.6 m/s)
Visibility: 10 or more miles (16+ km)
Ceiling: 7500 feet AGL
Clouds: overcast cloud deck at 7500 feet AGL
Weather: automated observation with no human augmentation;
there may or may not be significant weather present at this time
Translated TAF for KLNP

There is no translated TAF available for this airport

Find All Airport Services Find A Hotel Find A Rental Car Find A Golf Course Find A Restaurant $100 Hamburger



FBO's on the Field
FBO Company Facility Photos Services Transportation Aviation Fuel Prices: Prices include tax
Catering Weather Repair Courtesy Rental Type 100LL JetA JetA+ MOGAS 8087
 
Lonesome Pine Airport

This FBO has not yet been rated
FS:Shell
Last Updated: Nov-03
Login to update fuel prices
SS:
Contact Lonesome Pine AirportMore FBO Information
 
Add another FBO Facility Photos Catering Weather Repair Courtesy Rental Type 100LL JetA JetA+ MOGAS 8087
Services Transportation Aviation Fuel Prices: Prices include tax


model-print
model-print
model-print
model-print